createdAt,value
2023-02-28T00:08:18.579Z,-0.27
2023-02-28T00:14:12.100Z,-0.26
2023-02-28T00:16:47.593Z,-0.31
2023-02-28T00:28:14.577Z,-0.38
2023-02-28T00:32:02.287Z,-0.43
2023-02-28T00:34:38.919Z,-0.48
2023-02-28T00:41:19.313Z,-0.59
2023-02-28T00:44:41.831Z,-0.62
2023-02-28T00:47:14.429Z,-0.64
2023-02-28T00:49:47.682Z,-0.67
2023-02-28T00:52:27.043Z,-0.70
2023-02-28T00:58:50.686Z,-0.79
2023-02-28T01:05:55.298Z,-0.96
2023-02-28T01:12:55.059Z,-1.12
2023-02-28T01:16:15.536Z,-1.19
2023-02-28T01:18:47.765Z,-1.28
2023-02-28T01:21:28.090Z,-1.33
2023-02-28T01:24:01.664Z,-1.38
2023-02-28T01:26:40.763Z,-1.42
2023-02-28T01:29:13.843Z,-1.45
2023-02-28T01:31:53.211Z,-1.47
2023-02-28T01:34:26.358Z,-1.50
2023-02-28T01:37:32.108Z,-1.55
2023-02-28T01:48:07.351Z,-1.80
2023-02-28T01:59:11.521Z,-2.01
2023-02-28T02:06:08.053Z,-2.08
2023-02-28T02:08:41.067Z,-2.09
2023-02-28T02:11:25.612Z,-2.11
2023-02-28T02:27:46.624Z,-2.40
2023-02-28T02:53:08.846Z,-2.92
2023-02-28T02:59:59.869Z,-3.04
2023-02-28T03:07:16.770Z,-3.15
2023-02-28T03:09:57.989Z,-3.15
2023-02-28T03:36:29.768Z,-3.58
2023-02-28T03:43:52.043Z,-3.65
2023-02-28T03:54:34.383Z,-3.73
2023-02-28T04:02:04.805Z,-3.76
2023-02-28T04:08:32.603Z,-3.88
2023-02-28T04:11:41.649Z,-3.95
2023-02-28T04:14:22.770Z,-3.99
2023-02-28T04:25:50.641Z,-4.10
2023-02-28T04:29:23.690Z,-4.13
2023-02-28T04:36:22.733Z,-4.30
2023-02-28T04:38:58.146Z,-4.34
2023-02-28T04:54:25.613Z,-4.51
2023-02-28T05:06:38.235Z,-4.59
2023-02-28T05:09:15.022Z,-4.60
2023-02-28T05:12:35.758Z,-4.58
2023-02-28T05:15:10.736Z,-4.59
2023-02-28T05:18:39.215Z,-4.61
2023-02-28T05:25:51.088Z,-4.67
2023-02-28T05:28:30.183Z,-4.70
2023-02-28T05:31:02.755Z,-4.72
2023-02-28T05:33:41.142Z,-4.75
2023-02-28T05:36:13.635Z,-4.75
2023-02-28T05:38:53.051Z,-4.72
2023-02-28T05:45:41.038Z,-4.76
2023-02-28T05:57:24.691Z,-4.71
2023-02-28T06:00:46.646Z,-4.64
2023-02-28T06:12:33.253Z,-4.44
2023-02-28T06:24:56.147Z,-4.13
2023-02-28T06:32:03.378Z,-3.86
2023-02-28T06:34:35.962Z,-3.75
2023-02-28T06:37:15.293Z,-3.66
2023-02-28T06:39:47.657Z,-3.55
2023-02-28T06:47:13.323Z,-3.20
2023-02-28T06:54:40.127Z,-2.81
2023-02-28T06:57:12.536Z,-2.61
2023-02-28T06:59:44.755Z,-2.44
2023-02-28T07:02:23.270Z,-2.27
2023-02-28T07:04:56.076Z,-2.04
2023-02-28T07:12:02.991Z,0.89
2023-02-28T07:14:35.407Z,3.04
2023-02-28T07:17:08.919Z,4.36
2023-02-28T07:19:41.360Z,4.71
2023-02-28T07:22:15.813Z,4.26
2023-02-28T07:25:37.151Z,3.64
2023-02-28T07:28:09.471Z,4.08
2023-02-28T07:30:42.267Z,5.39
2023-02-28T07:37:23.338Z,7.16
2023-02-28T07:44:46.821Z,7.82
2023-02-28T07:47:19.061Z,7.87
2023-02-28T07:54:16.395Z,9.92
2023-02-28T07:56:48.745Z,11.10
2023-02-28T07:59:51.082Z,12.36
2023-02-28T08:07:46.647Z,12.82
2023-02-28T08:10:19.720Z,13.41
2023-02-28T08:12:58.372Z,14.02
2023-02-28T08:15:30.634Z,13.92
2023-02-28T08:18:09.617Z,13.86
2023-02-28T08:20:41.906Z,14.32
2023-02-28T08:23:21.718Z,14.68
2023-02-28T08:26:24.687Z,14.47
2023-02-28T08:28:58.014Z,14.01
2023-02-28T08:31:37.640Z,13.73
2023-02-28T08:38:17.359Z,15.91
2023-02-28T08:42:07.268Z,16.86
2023-02-28T08:48:30.047Z,14.45
2023-02-28T08:51:11.734Z,13.01
2023-02-28T08:54:35.399Z,13.10
2023-02-28T08:57:07.811Z,14.90
2023-02-28T08:59:40.318Z,16.74
2023-02-28T09:07:03.195Z,19.40
2023-02-28T09:14:26.615Z,22.23
2023-02-28T09:21:53.478Z,24.01
2023-02-28T09:24:26.340Z,24.60
2023-02-28T09:27:47.984Z,25.19
2023-02-28T09:30:21.493Z,25.84
2023-02-28T09:32:56.862Z,25.96
2023-02-28T09:36:43.260Z,26.59
2023-02-28T09:39:39.986Z,27.21
2023-02-28T09:42:39.026Z,27.30
2023-02-28T09:53:50.575Z,27.54
2023-02-28T10:10:22.528Z,25.17
2023-02-28T10:26:21.095Z,25.37
2023-02-28T10:28:55.476Z,25.67
2023-02-28T10:45:44.457Z,25.58
2023-02-28T10:53:44.858Z,23.87
2023-02-28T10:57:58.112Z,22.87
2023-02-28T11:00:55.000Z,22.46
2023-02-28T11:07:50.450Z,20.51
2023-02-28T11:11:14.490Z,19.65
2023-02-28T11:13:49.119Z,18.74
2023-02-28T11:26:54.334Z,14.73
2023-02-28T11:39:48.321Z,13.68
2023-02-28T11:47:36.495Z,14.55
2023-02-28T11:59:46.880Z,12.91
2023-02-28T12:02:27.396Z,12.43
2023-02-28T12:05:26.823Z,11.91
2023-02-28T12:08:29.341Z,11.26
2023-02-28T12:24:57.198Z,8.80
2023-02-28T12:35:28.230Z,8.10
2023-02-28T12:46:16.938Z,10.64
2023-02-28T12:49:44.461Z,11.61
2023-02-28T13:13:31.758Z,17.20
2023-02-28T13:17:37.198Z,17.57
2023-02-28T13:21:17.228Z,18.23
2023-02-28T13:37:47.402Z,19.05
2023-02-28T13:40:50.819Z,19.13
2023-02-28T13:43:35.734Z,19.08
2023-02-28T13:48:02.890Z,18.88
2023-02-28T13:59:12.473Z,17.71
2023-02-28T14:06:20.555Z,16.94
2023-02-28T14:22:17.123Z,12.97
2023-02-28T14:25:23.381Z,12.73
2023-02-28T14:28:12.556Z,12.76
2023-02-28T14:31:06.650Z,12.28
2023-02-28T14:38:45.363Z,12.04
2023-02-28T14:45:25.516Z,11.30
2023-02-28T14:57:45.224Z,9.41
2023-02-28T15:00:25.271Z,9.00
2023-02-28T15:02:58.718Z,8.61
2023-02-28T15:05:36.070Z,8.26
2023-02-28T15:08:16.312Z,7.90
2023-02-28T15:10:53.749Z,7.66
2023-02-28T15:13:31.139Z,7.41
2023-02-28T15:16:06.864Z,7.16
2023-02-28T15:18:51.901Z,6.95
2023-02-28T15:21:27.214Z,6.78
2023-02-28T15:24:13.604Z,6.59
2023-02-28T15:26:51.347Z,6.36
2023-02-28T15:29:26.948Z,6.24
2023-02-28T15:32:03.260Z,6.14
2023-02-28T15:34:43.503Z,6.01
2023-02-28T15:37:42.950Z,5.85
2023-02-28T15:40:19.203Z,5.72
2023-02-28T15:43:08.596Z,5.58
2023-02-28T15:45:43.739Z,5.45
2023-02-28T15:48:30.729Z,5.32
2023-02-28T15:51:17.971Z,5.21
2023-02-28T15:53:59.230Z,5.13
2023-02-28T15:56:38.223Z,5.02
2023-02-28T15:59:19.430Z,4.86
2023-02-28T16:02:19.549Z,4.72
2023-02-28T16:05:28.880Z,4.58
2023-02-28T16:08:03.576Z,4.46
2023-02-28T16:10:37.305Z,4.34
2023-02-28T16:13:13.090Z,4.20
2023-02-28T16:15:55.457Z,4.05
2023-02-28T16:18:28.037Z,3.92
2023-02-28T16:21:00.425Z,3.76
2023-02-28T16:23:32.885Z,3.58
2023-02-28T16:26:07.666Z,3.40
2023-02-28T16:28:45.585Z,3.25
2023-02-28T16:31:19.121Z,3.13
2023-02-28T16:33:51.861Z,3.01
2023-02-28T16:36:26.385Z,2.91
2023-02-28T16:38:59.487Z,2.81
2023-02-28T16:41:32.919Z,2.70
2023-02-28T16:44:15.680Z,2.60
2023-02-28T16:46:48.336Z,2.50
2023-02-28T16:49:21.176Z,2.39
2023-02-28T16:51:53.416Z,2.27
2023-02-28T16:54:28.317Z,2.17
2023-02-28T16:57:02.057Z,2.07
2023-02-28T16:59:34.775Z,1.98
2023-02-28T17:02:17.745Z,1.89
2023-02-28T17:04:50.335Z,1.82
2023-02-28T17:07:23.837Z,1.71
2023-02-28T17:09:56.178Z,1.65
2023-02-28T17:12:28.664Z,1.56
2023-02-28T17:15:01.017Z,1.49
2023-02-28T17:17:37.560Z,1.42
2023-02-28T17:20:15.089Z,1.34
2023-02-28T17:23:01.655Z,1.25
2023-02-28T17:25:34.333Z,1.19
2023-02-28T17:29:03.579Z,1.13
2023-02-28T17:31:51.842Z,1.06
2023-02-28T17:34:28.437Z,0.98
2023-02-28T17:37:16.272Z,0.91
2023-02-28T17:39:49.073Z,0.84
2023-02-28T17:42:24.276Z,0.81
2023-02-28T17:44:56.681Z,0.79
2023-02-28T17:47:29.113Z,0.73
2023-02-28T17:50:01.449Z,0.65
2023-02-28T17:52:42.259Z,0.58
2023-02-28T17:55:15.259Z,0.51
2023-02-28T17:57:47.671Z,0.44
2023-02-28T18:00:25.029Z,0.35
2023-02-28T18:02:57.911Z,0.25
2023-02-28T18:05:31.076Z,0.16
2023-02-28T18:08:07.687Z,0.12
2023-02-28T18:10:53.605Z,0.11
2023-02-28T18:13:26.282Z,0.09
2023-02-28T18:15:59.127Z,0.09
2023-02-28T18:18:31.794Z,0.08
2023-02-28T18:21:06.134Z,0.07
2023-02-28T18:23:38.813Z,0.07
2023-02-28T18:26:12.121Z,0.02
2023-02-28T18:28:48.287Z,-0.01
2023-02-28T18:31:24.908Z,-0.02
2023-02-28T18:33:59.415Z,-0.07
2023-02-28T18:36:32.154Z,-0.11
2023-02-28T18:39:12.740Z,-0.13
2023-02-28T18:41:49.105Z,-0.18
2023-02-28T18:44:21.652Z,-0.24
2023-02-28T18:47:21.413Z,-0.31
2023-02-28T18:49:55.696Z,-0.40
2023-02-28T18:52:31.892Z,-0.45
2023-02-28T18:55:19.844Z,-0.46
2023-02-28T18:57:52.619Z,-0.51
2023-02-28T19:00:26.665Z,-0.54
2023-02-28T19:03:00.291Z,-0.56
2023-02-28T19:05:35.002Z,-0.60
2023-02-28T19:08:07.903Z,-0.64
2023-02-28T19:10:44.125Z,-0.68
2023-02-28T19:13:16.841Z,-0.71
2023-02-28T19:15:56.231Z,-0.74
2023-02-28T19:18:37.027Z,-0.80
2023-02-28T19:21:13.545Z,-0.86
2023-02-28T19:23:46.079Z,-0.92
2023-02-28T19:26:23.893Z,-0.93
2023-02-28T19:28:56.876Z,-0.96
2023-02-28T19:31:31.907Z,-0.98
2023-02-28T19:34:07.101Z,-1.02
2023-02-28T19:36:45.952Z,-1.06
2023-02-28T19:39:20.453Z,-1.14
2023-02-28T19:41:54.240Z,-1.22
2023-02-28T19:44:29.644Z,-1.27
2023-02-28T19:47:05.039Z,-1.31
2023-02-28T19:49:38.198Z,-1.33
2023-02-28T19:52:13.530Z,-1.37
2023-02-28T19:54:51.940Z,-1.43
2023-02-28T19:57:27.652Z,-1.48
2023-02-28T20:00:02.093Z,-1.52
2023-02-28T20:02:45.259Z,-1.55
2023-02-28T20:05:18.122Z,-1.56
2023-02-28T20:07:50.535Z,-1.57
2023-02-28T20:10:57.816Z,-1.56
2023-02-28T20:13:30.694Z,-1.58
2023-02-28T20:19:22.945Z,-1.65
2023-02-28T20:26:05.035Z,-1.72
2023-02-28T20:29:13.848Z,-1.76
2023-02-28T20:31:46.582Z,-1.80
2023-02-28T20:35:01.952Z,-1.83
2023-02-28T20:37:34.416Z,-1.90
2023-02-28T20:41:14.878Z,-1.93
2023-02-28T20:52:03.798Z,-2.09
2023-02-28T20:54:38.273Z,-2.15
2023-02-28T20:57:12.829Z,-2.22
2023-02-28T20:59:45.223Z,-2.24
2023-02-28T21:02:50.432Z,-2.27
2023-02-28T21:05:26.131Z,-2.29
2023-02-28T21:08:47.529Z,-2.31
2023-02-28T21:11:28.728Z,-2.30
2023-02-28T21:19:18.931Z,-2.36
2023-02-28T21:21:58.625Z,-2.41
2023-02-28T21:25:27.190Z,-2.44
2023-02-28T21:28:02.166Z,-2.47
2023-02-28T21:34:43.878Z,-2.53
2023-02-28T21:38:19.106Z,-2.57
2023-02-28T21:40:52.246Z,-2.64
2023-02-28T21:43:26.358Z,-2.68
2023-02-28T21:50:13.130Z,-2.75
2023-02-28T21:53:52.025Z,-2.77
2023-02-28T22:11:13.201Z,-2.95
2023-02-28T22:14:31.182Z,-3.00
2023-02-28T22:17:06.772Z,-3.02
2023-02-28T22:20:30.358Z,-3.09
2023-02-28T22:36:41.167Z,-3.13
2023-02-28T22:43:43.289Z,-3.19
2023-02-28T22:46:16.421Z,-3.19
2023-02-28T22:48:55.841Z,-3.20
2023-02-28T22:51:29.617Z,-3.20
2023-02-28T22:54:08.706Z,-3.21
2023-02-28T22:56:41.128Z,-3.23
2023-02-28T22:59:30.328Z,-3.22
2023-02-28T23:02:53.711Z,-3.24
2023-02-28T23:05:26.270Z,-3.26
2023-02-28T23:08:06.275Z,-3.26
2023-02-28T23:15:10.227Z,-3.28
2023-02-28T23:25:49.995Z,-3.41
2023-02-28T23:36:19.145Z,-3.47
2023-02-28T23:47:48.432Z,-3.56
2023-02-28T23:50:58.030Z,-3.59
